sensor_id;sensor_type;location;lat;lon;timestamp;temperature;humidity
8114;DHT22;4099;52.684;9.918;2022-10-31T00:02:34;9.90;99.90
8114;DHT22;4099;52.684;9.918;2022-10-31T00:07:38;9.80;99.90
8114;DHT22;4099;52.684;9.918;2022-10-31T00:12:41;9.90;99.90
8114;DHT22;4099;52.684;9.918;2022-10-31T00:17:43;9.90;99.90
8114;DHT22;4099;52.684;9.918;2022-10-31T00:22:47;9.90;99.90
8114;DHT22;4099;52.684;9.918;2022-10-31T00:27:49;9.70;99.90
8114;DHT22;4099;52.684;9.918;2022-10-31T00:32:52;9.60;99.90
8114;DHT22;4099;52.684;9.918;2022-10-31T00:37:55;9.50;99.90
8114;DHT22;4099;52.684;9.918;2022-10-31T00:42:57;9.30;99.90
8114;DHT22;4099;52.684;9.918;2022-10-31T00:47:59;9.10;99.90
8114;DHT22;4099;52.684;9.918;2022-10-31T00:53:03;9.00;99.90
8114;DHT22;4099;52.684;9.918;2022-10-31T00:58:05;9.00;99.90
8114;DHT22;4099;52.684;9.918;2022-10-31T01:03:07;8.90;99.90
8114;DHT22;4099;52.684;9.918;2022-10-31T01:08:14;9.10;99.90
8114;DHT22;4099;52.684;9.918;2022-10-31T01:13:17;9.20;99.90
8114;DHT22;4099;52.684;9.918;2022-10-31T01:18:19;9.20;99.90
8114;DHT22;4099;52.684;9.918;2022-10-31T01:23:23;9.30;99.90
8114;DHT22;4099;52.684;9.918;2022-10-31T01:28:24;9.70;99.90
8114;DHT22;4099;52.684;9.918;2022-10-31T01:33:26;10.00;99.90
8114;DHT22;4099;52.684;9.918;2022-10-31T01:38:30;10.20;99.90
8114;DHT22;4099;52.684;9.918;2022-10-31T01:43:43;10.30;99.90
8114;DHT22;4099;52.684;9.918;2022-10-31T01:48:45;10.50;99.90
8114;DHT22;4099;52.684;9.918;2022-10-31T01:53:50;10.60;99.90
8114;DHT22;4099;52.684;9.918;2022-10-31T01:58:54;10.90;99.90
8114;DHT22;4099;52.684;9.918;2022-10-31T02:03:57;11.30;99.90
8114;DHT22;4099;52.684;9.918;2022-10-31T02:09:03;11.50;99.90
8114;DHT22;4099;52.684;9.918;2022-10-31T02:14:06;11.60;99.90
8114;DHT22;4099;52.684;9.918;2022-10-31T02:19:09;11.50;99.90
8114;DHT22;4099;52.684;9.918;2022-10-31T02:24:32;11.60;99.90
8114;DHT22;4099;52.684;9.918;2022-10-31T02:30:06;11.70;99.90
8114;DHT22;4099;52.684;9.918;2022-10-31T02:35:16;11.80;99.90
8114;DHT22;4099;52.684;9.918;2022-10-31T02:40:23;11.90;99.90
8114;DHT22;4099;52.684;9.918;2022-10-31T02:46:00;11.80;99.90
8114;DHT22;4099;52.684;9.918;2022-10-31T02:51:07;11.80;99.90
8114;DHT22;4099;52.684;9.918;2022-10-31T02:56:12;11.80;99.90
8114;DHT22;4099;52.684;9.918;2022-10-31T03:01:33;11.60;99.90
8114;DHT22;4099;52.684;9.918;2022-10-31T03:06:41;11.50;99.90
8114;DHT22;4099;52.684;9.918;2022-10-31T03:11:53;11.30;99.90
8114;DHT22;4099;52.684;9.918;2022-10-31T03:17:00;11.20;99.90
8114;DHT22;4099;52.684;9.918;2022-10-31T03:22:10;11.00;99.90
8114;DHT22;4099;52.684;9.918;2022-10-31T03:27:20;10.80;99.90
8114;DHT22;4099;52.684;9.918;2022-10-31T03:32:27;10.70;99.90
8114;DHT22;4099;52.684;9.918;2022-10-31T03:37:34;10.60;99.90
8114;DHT22;4099;52.684;9.918;2022-10-31T03:42:39;10.40;99.90
8114;DHT22;4099;52.684;9.918;2022-10-31T03:47:43;10.40;99.90
8114;DHT22;4099;52.684;9.918;2022-10-31T03:52:49;10.30;99.90
8114;DHT22;4099;52.684;9.918;2022-10-31T03:57:57;10.20;99.90
8114;DHT22;4099;52.684;9.918;2022-10-31T04:03:03;10.20;99.90
8114;DHT22;4099;52.684;9.918;2022-10-31T04:08:15;10.10;99.90
8114;DHT22;4099;52.684;9.918;2022-10-31T04:13:22;10.10;99.90
8114;DHT22;4099;52.684;9.918;2022-10-31T04:18:33;10.20;99.90
8114;DHT22;4099;52.684;9.918;2022-10-31T04:23:38;10.10;99.90
8114;DHT22;4099;52.684;9.918;2022-10-31T04:28:59;9.90;99.90
8114;DHT22;4099;52.684;9.918;2022-10-31T04:34:02;9.70;99.90
8114;DHT22;4099;52.684;9.918;2022-10-31T04:39:05;9.50;99.90
8114;DHT22;4099;52.684;9.918;2022-10-31T04:44:20;9.40;99.90
8114;DHT22;4099;52.684;9.918;2022-10-31T04:49:26;9.30;99.90
8114;DHT22;4099;52.684;9.918;2022-10-31T04:54:29;9.40;99.90
8114;DHT22;4099;52.684;9.918;2022-10-31T04:59:54;9.30;99.90
8114;DHT22;4099;52.684;9.918;2022-10-31T05:04:57;9.40;99.90
8114;DHT22;4099;52.684;9.918;2022-10-31T05:10:00;9.50;99.90
8114;DHT22;4099;52.684;9.918;2022-10-31T05:15:05;9.40;99.90
8114;DHT22;4099;52.684;9.918;2022-10-31T05:20:30;9.40;99.90
8114;DHT22;4099;52.684;9.918;2022-10-31T05:25:40;9.40;99.90
8114;DHT22;4099;52.684;9.918;2022-10-31T05:30:43;9.40;99.90
8114;DHT22;4099;52.684;9.918;2022-10-31T05:35:48;9.40;99.90
8114;DHT22;4099;52.684;9.918;2022-10-31T05:41:08;9.30;99.90
8114;DHT22;4099;52.684;9.918;2022-10-31T05:46:10;9.50;99.90
8114;DHT22;4099;52.684;9.918;2022-10-31T05:51:40;9.60;99.90
8114;DHT22;4099;52.684;9.918;2022-10-31T05:56:44;9.70;99.90
8114;DHT22;4099;52.684;9.918;2022-10-31T06:01:46;9.70;99.90
8114;DHT22;4099;52.684;9.918;2022-10-31T06:07:08;9.80;99.90
8114;DHT22;4099;52.684;9.918;2022-10-31T06:12:11;9.80;99.90
8114;DHT22;4099;52.684;9.918;2022-10-31T06:17:32;9.90;99.90
8114;DHT22;4099;52.684;9.918;2022-10-31T06:23:10;9.90;99.90
8114;DHT22;4099;52.684;9.918;2022-10-31T06:28:14;10.00;99.90
8114;DHT22;4099;52.684;9.918;2022-10-31T06:33:40;10.00;99.90
8114;DHT22;4099;52.684;9.918;2022-10-31T06:38:42;10.10;99.90
8114;DHT22;4099;52.684;9.918;2022-10-31T06:43:47;10.20;99.90
8114;DHT22;4099;52.684;9.918;2022-10-31T06:49:21;10.40;99.90
8114;DHT22;4099;52.684;9.918;2022-10-31T06:54:27;10.60;99.90
8114;DHT22;4099;52.684;9.918;2022-10-31T06:59:31;10.70;99.90
8114;DHT22;4099;52.684;9.918;2022-10-31T07:04:48;10.90;99.90
8114;DHT22;4099;52.684;9.918;2022-10-31T07:09:52;11.00;99.90
8114;DHT22;4099;52.684;9.918;2022-10-31T07:15:07;11.10;99.90
8114;DHT22;4099;52.684;9.918;2022-10-31T07:20:09;11.30;99.90
8114;DHT22;4099;52.684;9.918;2022-10-31T07:25:11;11.30;99.90
8114;DHT22;4099;52.684;9.918;2022-10-31T07:30:41;11.50;99.90
8114;DHT22;4099;52.684;9.918;2022-10-31T07:35:43;11.50;99.90
8114;DHT22;4099;52.684;9.918;2022-10-31T07:40:50;11.50;99.90
8114;DHT22;4099;52.684;9.918;2022-10-31T07:45:54;11.70;99.90
8114;DHT22;4099;52.684;9.918;2022-10-31T07:51:14;11.70;99.90
8114;DHT22;4099;52.684;9.918;2022-10-31T07:56:36;11.70;99.90
8114;DHT22;4099;52.684;9.918;2022-10-31T08:01:41;11.80;99.90
8114;DHT22;4099;52.684;9.918;2022-10-31T08:07:07;11.90;99.90
8114;DHT22;4099;52.684;9.918;2022-10-31T08:12:11;12.10;99.90
8114;DHT22;4099;52.684;9.918;2022-10-31T08:17:16;12.20;99.90
8114;DHT22;4099;52.684;9.918;2022-10-31T08:22:27;12.20;99.90
8114;DHT22;4099;52.684;9.918;2022-10-31T08:27:29;12.40;99.90
8114;DHT22;4099;52.684;9.918;2022-10-31T08:32:35;12.50;99.90
8114;DHT22;4099;52.684;9.918;2022-10-31T08:37:56;12.50;99.90
8114;DHT22;4099;52.684;9.918;2022-10-31T08:43:02;12.50;99.90
8114;DHT22;4099;52.684;9.918;2022-10-31T08:48:08;12.50;99.90
8114;DHT22;4099;52.684;9.918;2022-10-31T08:53:13;12.50;99.90
8114;DHT22;4099;52.684;9.918;2022-10-31T08:58:18;12.60;99.90
8114;DHT22;4099;52.684;9.918;2022-10-31T09:03:27;12.70;99.90
8114;DHT22;4099;52.684;9.918;2022-10-31T09:08:31;12.90;99.90
8114;DHT22;4099;52.684;9.918;2022-10-31T09:13:34;13.00;99.90
8114;DHT22;4099;52.684;9.918;2022-10-31T09:19:04;13.00;99.90
8114;DHT22;4099;52.684;9.918;2022-10-31T09:24:06;13.20;99.90
8114;DHT22;4099;52.684;9.918;2022-10-31T09:29:08;13.50;99.90
8114;DHT22;4099;52.684;9.918;2022-10-31T09:34:14;13.50;99.90
8114;DHT22;4099;52.684;9.918;2022-10-31T09:39:21;13.70;99.90
8114;DHT22;4099;52.684;9.918;2022-10-31T09:44:42;13.90;99.90
8114;DHT22;4099;52.684;9.918;2022-10-31T09:50:11;13.80;99.90
8114;DHT22;4099;52.684;9.918;2022-10-31T09:55:18;14.00;99.90
8114;DHT22;4099;52.684;9.918;2022-10-31T10:00:21;14.20;99.90
8114;DHT22;4099;52.684;9.918;2022-10-31T10:05:29;14.30;99.90
8114;DHT22;4099;52.684;9.918;2022-10-31T10:10:45;14.30;99.90
8114;DHT22;4099;52.684;9.918;2022-10-31T10:16:15;14.20;99.90
8114;DHT22;4099;52.684;9.918;2022-10-31T10:21:30;14.20;99.90
8114;DHT22;4099;52.684;9.918;2022-10-31T10:26:37;14.20;99.90
8114;DHT22;4099;52.684;9.918;2022-10-31T10:31:40;14.30;99.90
8114;DHT22;4099;52.684;9.918;2022-10-31T10:36:49;14.60;99.90
8114;DHT22;4099;52.684;9.918;2022-10-31T10:41:52;14.60;99.90
8114;DHT22;4099;52.684;9.918;2022-10-31T10:47:12;14.60;99.90
8114;DHT22;4099;52.684;9.918;2022-10-31T10:52:39;14.90;99.90
8114;DHT22;4099;52.684;9.918;2022-10-31T10:57:55;14.90;99.90
8114;DHT22;4099;52.684;9.918;2022-10-31T11:02:59;15.00;99.90
8114;DHT22;4099;52.684;9.918;2022-10-31T11:08:03;15.10;99.90
8114;DHT22;4099;52.684;9.918;2022-10-31T11:13:20;15.40;99.90
8114;DHT22;4099;52.684;9.918;2022-10-31T11:18:26;15.60;99.90
8114;DHT22;4099;52.684;9.918;2022-10-31T11:23:30;15.50;99.90
8114;DHT22;4099;52.684;9.918;2022-10-31T11:28:33;15.60;99.90
8114;DHT22;4099;52.684;9.918;2022-10-31T11:33:37;15.80;99.90
8114;DHT22;4099;52.684;9.918;2022-10-31T11:38:42;15.90;99.90
8114;DHT22;4099;52.684;9.918;2022-10-31T11:43:53;15.90;99.90
8114;DHT22;4099;52.684;9.918;2022-10-31T11:48:56;15.90;99.90
8114;DHT22;4099;52.684;9.918;2022-10-31T11:54:00;15.70;99.90
8114;DHT22;4099;52.684;9.918;2022-10-31T11:59:05;15.80;99.90
8114;DHT22;4099;52.684;9.918;2022-10-31T12:04:10;15.80;99.90
8114;DHT22;4099;52.684;9.918;2022-10-31T12:09:22;15.90;99.90
8114;DHT22;4099;52.684;9.918;2022-10-31T12:14:33;15.90;99.90
8114;DHT22;4099;52.684;9.918;2022-10-31T12:19:43;16.00;99.90
8114;DHT22;4099;52.684;9.918;2022-10-31T12:24:59;15.90;99.90
8114;DHT22;4099;52.684;9.918;2022-10-31T12:30:11;15.90;99.90
8114;DHT22;4099;52.684;9.918;2022-10-31T12:35:26;16.10;99.90
8114;DHT22;4099;52.684;9.918;2022-10-31T12:40:42;16.20;99.90
8114;DHT22;4099;52.684;9.918;2022-10-31T12:45:53;16.20;99.90
8114;DHT22;4099;52.684;9.918;2022-10-31T12:51:02;16.40;99.90
8114;DHT22;4099;52.684;9.918;2022-10-31T12:56:27;16.50;99.90
8114;DHT22;4099;52.684;9.918;2022-10-31T13:01:35;16.50;99.90
8114;DHT22;4099;52.684;9.918;2022-10-31T13:06:42;16.70;99.90
8114;DHT22;4099;52.684;9.918;2022-10-31T13:11:55;16.90;99.90
8114;DHT22;4099;52.684;9.918;2022-10-31T13:16:59;16.90;99.90
8114;DHT22;4099;52.684;9.918;2022-10-31T13:22:07;16.90;99.90
8114;DHT22;4099;52.684;9.918;2022-10-31T13:27:15;16.90;99.90
8114;DHT22;4099;52.684;9.918;2022-10-31T13:32:19;16.90;99.90
8114;DHT22;4099;52.684;9.918;2022-10-31T13:37:28;16.70;99.90
8114;DHT22;4099;52.684;9.918;2022-10-31T13:42:44;16.50;99.90
8114;DHT22;4099;52.684;9.918;2022-10-31T13:47:59;16.50;99.90
8114;DHT22;4099;52.684;9.918;2022-10-31T13:53:13;16.40;99.90
8114;DHT22;4099;52.684;9.918;2022-10-31T13:58:27;16.20;99.90
8114;DHT22;4099;52.684;9.918;2022-10-31T14:03:30;16.10;99.90
8114;DHT22;4099;52.684;9.918;2022-10-31T14:08:36;16.00;99.90
8114;DHT22;4099;52.684;9.918;2022-10-31T14:13:44;16.00;99.90
8114;DHT22;4099;52.684;9.918;2022-10-31T14:18:50;15.90;99.90
8114;DHT22;4099;52.684;9.918;2022-10-31T14:23:53;15.80;99.90
8114;DHT22;4099;52.684;9.918;2022-10-31T14:28:58;15.60;99.90
8114;DHT22;4099;52.684;9.918;2022-10-31T14:34:03;15.60;99.90
8114;DHT22;4099;52.684;9.918;2022-10-31T14:39:11;15.50;99.90
8114;DHT22;4099;52.684;9.918;2022-10-31T14:50:10;15.20;99.90
8114;DHT22;4099;52.684;9.918;2022-10-31T14:55:16;15.20;99.90
8114;DHT22;4099;52.684;9.918;2022-10-31T15:00:20;15.00;99.90
8114;DHT22;4099;52.684;9.918;2022-10-31T15:05:26;14.80;99.90
8114;DHT22;4099;52.684;9.918;2022-10-31T15:10:30;14.60;99.90
8114;DHT22;4099;52.684;9.918;2022-10-31T15:15:33;14.40;99.90
8114;DHT22;4099;52.684;9.918;2022-10-31T15:20:42;14.40;99.90
8114;DHT22;4099;52.684;9.918;2022-10-31T15:25:46;14.20;99.90
8114;DHT22;4099;52.684;9.918;2022-10-31T15:30:53;14.20;99.90
8114;DHT22;4099;52.684;9.918;2022-10-31T15:35:59;14.00;99.90
8114;DHT22;4099;52.684;9.918;2022-10-31T15:41:03;13.80;99.90
8114;DHT22;4099;52.684;9.918;2022-10-31T15:46:07;13.60;99.90
8114;DHT22;4099;52.684;9.918;2022-10-31T15:51:12;13.40;99.90
8114;DHT22;4099;52.684;9.918;2022-10-31T15:56:20;13.20;99.90
8114;DHT22;4099;52.684;9.918;2022-10-31T16:01:24;13.20;99.90
8114;DHT22;4099;52.684;9.918;2022-10-31T16:06:28;13.10;99.90
8114;DHT22;4099;52.684;9.918;2022-10-31T16:11:35;13.10;99.90
8114;DHT22;4099;52.684;9.918;2022-10-31T16:16:42;13.00;99.90
8114;DHT22;4099;52.684;9.918;2022-10-31T16:21:48;12.90;99.90
8114;DHT22;4099;52.684;9.918;2022-10-31T16:26:53;12.90;99.90
8114;DHT22;4099;52.684;9.918;2022-10-31T16:31:57;12.90;99.90
8114;DHT22;4099;52.684;9.918;2022-10-31T16:37:01;12.90;99.90
8114;DHT22;4099;52.684;9.918;2022-10-31T16:42:04;12.90;99.90
8114;DHT22;4099;52.684;9.918;2022-10-31T16:47:13;12.80;99.90
8114;DHT22;4099;52.684;9.918;2022-10-31T16:52:17;12.80;99.90
8114;DHT22;4099;52.684;9.918;2022-10-31T16:57:29;12.80;99.90
8114;DHT22;4099;52.684;9.918;2022-10-31T17:02:33;12.80;99.90
8114;DHT22;4099;52.684;9.918;2022-10-31T17:07:36;12.80;99.90
8114;DHT22;4099;52.684;9.918;2022-10-31T17:12:41;12.90;99.90
8114;DHT22;4099;52.684;9.918;2022-10-31T17:17:45;12.90;99.90
8114;DHT22;4099;52.684;9.918;2022-10-31T17:22:49;12.90;99.90
8114;DHT22;4099;52.684;9.918;2022-10-31T17:27:51;13.00;99.90
8114;DHT22;4099;52.684;9.918;2022-10-31T17:32:53;13.00;99.90
8114;DHT22;4099;52.684;9.918;2022-10-31T17:37:57;13.00;99.90
8114;DHT22;4099;52.684;9.918;2022-10-31T17:42:59;13.10;99.90
8114;DHT22;4099;52.684;9.918;2022-10-31T17:48:02;13.00;99.90
8114;DHT22;4099;52.684;9.918;2022-10-31T17:53:06;12.90;99.90
8114;DHT22;4099;52.684;9.918;2022-10-31T17:58:09;12.90;99.90
8114;DHT22;4099;52.684;9.918;2022-10-31T18:03:12;13.00;99.90
8114;DHT22;4099;52.684;9.918;2022-10-31T18:08:16;13.00;99.90
8114;DHT22;4099;52.684;9.918;2022-10-31T18:13:18;13.00;99.90
8114;DHT22;4099;52.684;9.918;2022-10-31T18:18:21;13.00;99.90
8114;DHT22;4099;52.684;9.918;2022-10-31T18:23:25;13.10;99.90
8114;DHT22;4099;52.684;9.918;2022-10-31T18:28:27;13.10;99.90
8114;DHT22;4099;52.684;9.918;2022-10-31T18:33:30;13.10;99.90
8114;DHT22;4099;52.684;9.918;2022-10-31T18:38:37;13.10;99.90
8114;DHT22;4099;52.684;9.918;2022-10-31T18:43:39;13.10;99.90
8114;DHT22;4099;52.684;9.918;2022-10-31T18:48:43;13.10;99.90
8114;DHT22;4099;52.684;9.918;2022-10-31T18:53:52;13.10;99.90
8114;DHT22;4099;52.684;9.918;2022-10-31T18:58:54;13.20;99.90
8114;DHT22;4099;52.684;9.918;2022-10-31T19:03:57;13.20;99.90
8114;DHT22;4099;52.684;9.918;2022-10-31T19:09:04;13.20;99.90
8114;DHT22;4099;52.684;9.918;2022-10-31T19:14:09;13.20;99.90
8114;DHT22;4099;52.684;9.918;2022-10-31T19:19:13;13.10;99.90
8114;DHT22;4099;52.684;9.918;2022-10-31T19:24:18;13.20;99.90
8114;DHT22;4099;52.684;9.918;2022-10-31T19:29:20;13.30;99.90
8114;DHT22;4099;52.684;9.918;2022-10-31T19:34:23;13.30;99.90
8114;DHT22;4099;52.684;9.918;2022-10-31T19:39:26;13.30;99.90
8114;DHT22;4099;52.684;9.918;2022-10-31T19:44:29;13.40;99.90
8114;DHT22;4099;52.684;9.918;2022-10-31T19:49:32;13.40;99.90
8114;DHT22;4099;52.684;9.918;2022-10-31T19:54:35;13.40;99.90
8114;DHT22;4099;52.684;9.918;2022-10-31T19:59:38;13.40;99.90
8114;DHT22;4099;52.684;9.918;2022-10-31T20:04:40;13.40;99.90
8114;DHT22;4099;52.684;9.918;2022-10-31T20:09:46;13.40;99.90
8114;DHT22;4099;52.684;9.918;2022-10-31T20:14:49;13.40;99.90
8114;DHT22;4099;52.684;9.918;2022-10-31T20:19:51;13.50;99.90
8114;DHT22;4099;52.684;9.918;2022-10-31T20:24:55;13.50;99.90
8114;DHT22;4099;52.684;9.918;2022-10-31T20:29:58;13.50;99.90
8114;DHT22;4099;52.684;9.918;2022-10-31T20:35:01;13.50;99.90
8114;DHT22;4099;52.684;9.918;2022-10-31T20:40:05;13.50;99.90
8114;DHT22;4099;52.684;9.918;2022-10-31T20:45:09;13.50;99.90
8114;DHT22;4099;52.684;9.918;2022-10-31T20:50:12;13.50;99.90
8114;DHT22;4099;52.684;9.918;2022-10-31T20:55:16;13.50;99.90
8114;DHT22;4099;52.684;9.918;2022-10-31T21:00:18;13.50;99.90
8114;DHT22;4099;52.684;9.918;2022-10-31T21:05:21;13.50;99.90
8114;DHT22;4099;52.684;9.918;2022-10-31T21:10:25;13.50;99.90
8114;DHT22;4099;52.684;9.918;2022-10-31T21:15:27;13.50;99.90
8114;DHT22;4099;52.684;9.918;2022-10-31T21:20:30;13.50;99.90
8114;DHT22;4099;52.684;9.918;2022-10-31T21:25:36;13.50;99.90
8114;DHT22;4099;52.684;9.918;2022-10-31T21:30:40;13.50;99.90
8114;DHT22;4099;52.684;9.918;2022-10-31T21:35:48;13.50;99.90
8114;DHT22;4099;52.684;9.918;2022-10-31T21:40:57;13.50;99.90
8114;DHT22;4099;52.684;9.918;2022-10-31T21:46:02;13.50;99.90
8114;DHT22;4099;52.684;9.918;2022-10-31T21:51:05;13.50;99.90
8114;DHT22;4099;52.684;9.918;2022-10-31T21:56:10;13.40;99.90
8114;DHT22;4099;52.684;9.918;2022-10-31T22:01:12;13.40;99.90
8114;DHT22;4099;52.684;9.918;2022-10-31T22:06:15;13.30;99.90
8114;DHT22;4099;52.684;9.918;2022-10-31T22:11:21;13.40;99.90
8114;DHT22;4099;52.684;9.918;2022-10-31T22:16:25;13.30;99.90
8114;DHT22;4099;52.684;9.918;2022-10-31T22:21:29;13.30;99.90
8114;DHT22;4099;52.684;9.918;2022-10-31T22:26:33;13.10;99.90
8114;DHT22;4099;52.684;9.918;2022-10-31T22:31:38;12.90;99.90
8114;DHT22;4099;52.684;9.918;2022-10-31T22:36:41;12.80;99.90
8114;DHT22;4099;52.684;9.918;2022-10-31T22:41:45;12.70;99.90
8114;DHT22;4099;52.684;9.918;2022-10-31T22:46:48;12.50;99.90
8114;DHT22;4099;52.684;9.918;2022-10-31T22:51:50;12.50;99.90
8114;DHT22;4099;52.684;9.918;2022-10-31T22:56:54;12.50;99.90
8114;DHT22;4099;52.684;9.918;2022-10-31T23:01:57;12.50;99.90
8114;DHT22;4099;52.684;9.918;2022-10-31T23:06:59;12.50;99.90
8114;DHT22;4099;52.684;9.918;2022-10-31T23:12:03;12.60;99.90
8114;DHT22;4099;52.684;9.918;2022-10-31T23:17:20;12.50;99.90
8114;DHT22;4099;52.684;9.918;2022-10-31T23:22:22;12.50;99.90
8114;DHT22;4099;52.684;9.918;2022-10-31T23:27:26;12.40;99.90
8114;DHT22;4099;52.684;9.918;2022-10-31T23:32:30;12.30;99.90
8114;DHT22;4099;52.684;9.918;2022-10-31T23:37:36;12.20;99.90
8114;DHT22;4099;52.684;9.918;2022-10-31T23:42:40;12.20;99.90
8114;DHT22;4099;52.684;9.918;2022-10-31T23:47:43;12.50;99.90
8114;DHT22;4099;52.684;9.918;2022-10-31T23:52:46;12.60;99.90
8114;DHT22;4099;52.684;9.918;2022-10-31T23:57:49;12.70;99.90
